createdAt,value
2023-04-02T00:01:51.979Z,11.20
2023-04-02T00:04:26.394Z,11.20
2023-04-02T00:06:56.652Z,11.20
2023-04-02T00:09:37.206Z,11.20
2023-04-02T00:12:19.364Z,11.20
2023-04-02T00:14:49.327Z,11.20
2023-04-02T00:17:16.662Z,11.10
2023-04-02T00:20:02.359Z,11.00
2023-04-02T00:22:32.350Z,11.00
2023-04-02T00:25:07.773Z,11.00
2023-04-02T00:27:35.999Z,11.00
2023-04-02T00:30:04.251Z,11.00
2023-04-02T00:32:39.032Z,11.00
2023-04-02T00:35:27.642Z,11.10
2023-04-02T00:37:56.086Z,11.10
2023-04-02T00:40:26.696Z,11.10
2023-04-02T00:42:58.115Z,11.10
2023-04-02T00:45:32.014Z,11.10
2023-04-02T00:48:01.227Z,11.00
2023-04-02T00:50:34.661Z,11.00
2023-04-02T00:53:10.324Z,10.90
2023-04-02T00:55:41.705Z,10.90
2023-04-02T00:58:27.074Z,10.90
2023-04-02T01:00:56.728Z,10.80
2023-04-02T01:03:34.695Z,10.80
2023-04-02T01:06:12.674Z,10.80
2023-04-02T01:08:54.599Z,10.80
2023-04-02T01:11:57.840Z,10.80
2023-04-02T01:14:45.932Z,10.80
2023-04-02T01:17:26.455Z,10.80
2023-04-02T01:20:31.092Z,10.80
2023-04-02T01:23:21.329Z,10.90
2023-04-02T01:25:55.183Z,10.80
2023-04-02T01:28:37.531Z,10.80
2023-04-02T01:31:05.181Z,10.80
2023-04-02T01:33:35.780Z,10.80
2023-04-02T01:36:09.070Z,10.70
2023-04-02T01:38:54.934Z,10.70
2023-04-02T01:41:43.749Z,10.70
2023-04-02T01:44:15.364Z,10.70
2023-04-02T01:46:43.180Z,10.60
2023-04-02T01:49:19.730Z,10.60
2023-04-02T01:51:51.722Z,10.60
2023-04-02T01:54:21.504Z,10.60
2023-04-02T01:56:49.291Z,10.60
2023-04-02T01:59:20.261Z,10.60
2023-04-02T02:02:01.310Z,10.60
2023-04-02T02:04:29.087Z,10.60
2023-04-02T02:06:58.745Z,10.60
2023-04-02T02:09:28.922Z,10.60
2023-04-02T02:11:58.827Z,10.60
2023-04-02T02:14:28.615Z,10.60
2023-04-02T02:16:57.873Z,10.60
2023-04-02T02:19:42.606Z,10.60
2023-04-02T02:22:32.179Z,10.50
2023-04-02T02:25:02.147Z,10.50
2023-04-02T02:27:28.961Z,10.50
2023-04-02T02:30:17.541Z,10.50
2023-04-02T02:33:16.321Z,10.50
2023-04-02T02:36:01.666Z,10.50
2023-04-02T02:38:53.164Z,10.60
2023-04-02T02:41:43.059Z,10.50
2023-04-02T02:44:10.449Z,10.50
2023-04-02T02:46:43.487Z,10.40
2023-04-02T02:49:17.903Z,10.40
2023-04-02T02:52:08.438Z,10.40
2023-04-02T02:54:48.074Z,10.30
2023-04-02T02:57:23.082Z,10.30
2023-04-02T02:59:52.574Z,10.30
2023-04-02T03:02:19.533Z,10.30
2023-04-02T03:04:49.577Z,10.20
2023-04-02T03:07:19.281Z,10.20
2023-04-02T03:10:16.632Z,10.20
2023-04-02T03:12:49.525Z,10.20
2023-04-02T03:15:35.515Z,10.20
2023-04-02T03:18:27.247Z,10.20
2023-04-02T03:21:02.573Z,10.10
2023-04-02T03:23:37.370Z,10.10
2023-04-02T03:26:28.083Z,10.00
2023-04-02T03:29:22.423Z,10.00
2023-04-02T03:31:57.798Z,10.00
2023-04-02T03:34:34.509Z,9.90
2023-04-02T03:37:13.970Z,9.90
2023-04-02T03:40:01.878Z,9.80
2023-04-02T03:42:39.341Z,9.70
2023-04-02T03:45:16.977Z,9.80
2023-04-02T03:48:07.200Z,9.70
2023-04-02T03:50:38.263Z,9.70
2023-04-02T03:53:05.749Z,9.70
2023-04-02T03:55:37.428Z,9.80
2023-04-02T03:58:18.987Z,9.80
2023-04-02T04:01:00.508Z,9.80
2023-04-02T04:03:45.191Z,9.80
2023-04-02T04:06:29.116Z,9.80
2023-04-02T04:09:01.398Z,9.80
2023-04-02T04:11:34.984Z,9.80
2023-04-02T04:14:12.691Z,9.80
2023-04-02T04:16:55.695Z,9.80
2023-04-02T04:19:55.437Z,9.70
2023-04-02T04:22:32.561Z,9.70
2023-04-02T04:25:34.050Z,9.60
2023-04-02T04:28:38.485Z,9.60
2023-04-02T04:31:17.987Z,9.60
2023-04-02T04:33:55.057Z,9.50
2023-04-02T04:36:29.971Z,9.60
2023-04-02T04:39:14.602Z,9.60
2023-04-02T04:41:47.589Z,9.60
2023-04-02T04:44:22.840Z,9.60
2023-04-02T04:46:58.664Z,9.60
2023-04-02T04:49:38.565Z,9.60
2023-04-02T04:52:14.357Z,9.60
2023-04-02T04:54:42.529Z,9.50
2023-04-02T04:57:29.173Z,9.50
2023-04-02T05:00:14.092Z,9.50
2023-04-02T05:02:54.783Z,9.50
2023-04-02T05:05:31.344Z,9.50
2023-04-02T05:08:14.699Z,9.50
2023-04-02T05:10:50.955Z,9.50
2023-04-02T05:13:41.518Z,9.50
2023-04-02T05:16:26.382Z,9.50
2023-04-02T05:19:25.544Z,9.40
2023-04-02T05:22:22.977Z,9.40
2023-04-02T05:25:02.882Z,9.30
2023-04-02T05:27:37.908Z,9.30
2023-04-02T05:30:20.298Z,9.30
2023-04-02T05:32:54.441Z,9.20
2023-04-02T05:35:32.638Z,9.20
2023-04-02T05:38:01.825Z,9.20
2023-04-02T05:40:38.356Z,9.10
2023-04-02T05:43:10.760Z,9.20
2023-04-02T05:45:44.904Z,9.10
2023-04-02T05:48:21.010Z,9.10
2023-04-02T05:50:52.979Z,9.10
2023-04-02T05:53:28.247Z,9.00
2023-04-02T05:56:01.653Z,9.00
2023-04-02T05:58:44.046Z,8.90
2023-04-02T06:01:47.219Z,8.90
2023-04-02T06:04:50.628Z,8.80
2023-04-02T06:07:27.084Z,8.80
2023-04-02T06:10:05.822Z,8.80
2023-04-02T06:12:49.750Z,8.80
2023-04-02T06:15:22.074Z,8.70
2023-04-02T06:18:22.002Z,8.70
2023-04-02T06:20:50.483Z,8.70
2023-04-02T06:23:38.558Z,8.60
2023-04-02T06:26:25.601Z,8.60
2023-04-02T06:29:12.487Z,8.60
2023-04-02T06:31:54.023Z,8.60
2023-04-02T06:34:25.244Z,8.50
2023-04-02T06:37:12.764Z,8.40
2023-04-02T06:39:39.632Z,8.40
2023-04-02T06:42:16.771Z,8.50
2023-04-02T06:44:58.812Z,8.40
2023-04-02T06:47:47.247Z,8.40
2023-04-02T06:50:27.980Z,8.30
2023-04-02T06:52:59.757Z,8.30
2023-04-02T06:55:37.771Z,8.30
2023-04-02T06:58:05.031Z,8.30
2023-04-02T07:00:41.427Z,8.30
2023-04-02T07:03:23.206Z,8.20
2023-04-02T07:05:51.246Z,8.20
2023-04-02T07:08:18.528Z,8.20
2023-04-02T07:10:45.612Z,8.20
2023-04-02T07:13:16.641Z,8.20
2023-04-02T07:15:45.801Z,8.30
2023-04-02T07:18:27.947Z,8.30
2023-04-02T07:20:56.661Z,8.40
2023-04-02T07:23:24.731Z,8.40
2023-04-02T07:25:54.566Z,8.50
2023-04-02T07:28:22.875Z,8.60
2023-04-02T07:30:50.860Z,8.60
2023-04-02T07:33:20.807Z,8.60
2023-04-02T07:35:48.889Z,8.60
2023-04-02T07:38:16.131Z,8.70
2023-04-02T07:40:43.303Z,8.70
2023-04-02T07:43:10.577Z,8.80
2023-04-02T07:45:38.112Z,8.80
2023-04-02T07:48:10.613Z,8.80
2023-04-02T07:50:37.548Z,8.80
2023-04-02T07:53:04.664Z,8.80
2023-04-02T07:55:31.531Z,8.80
2023-04-02T07:57:59.787Z,8.80
2023-04-02T08:00:28.345Z,8.80
2023-04-02T08:02:55.507Z,8.80
2023-04-02T08:05:22.674Z,8.70
2023-04-02T08:07:56.952Z,8.70
2023-04-02T08:10:24.293Z,8.70
2023-04-02T08:12:51.143Z,8.60
2023-04-02T08:15:18.694Z,8.60
2023-04-02T08:17:45.855Z,8.60
2023-04-02T08:20:18.145Z,8.60
2023-04-02T08:22:46.777Z,8.70
2023-04-02T08:25:13.807Z,8.70
2023-04-02T08:27:41.071Z,8.80
2023-04-02T08:30:09.289Z,8.80
2023-04-02T08:32:36.241Z,8.80
2023-04-02T08:35:03.267Z,8.80
2023-04-02T08:37:30.229Z,8.90
2023-04-02T08:39:57.034Z,8.80
2023-04-02T08:42:41.136Z,8.70
2023-04-02T08:45:25.402Z,8.70
2023-04-02T08:48:06.458Z,8.80
2023-04-02T08:50:39.992Z,8.80
2023-04-02T08:53:13.176Z,8.80
2023-04-02T08:55:56.214Z,8.70
2023-04-02T08:58:37.503Z,8.80
2023-04-02T09:01:06.484Z,8.80
2023-04-02T09:03:45.180Z,8.80
2023-04-02T09:06:16.685Z,8.90
2023-04-02T09:08:46.433Z,8.90
2023-04-02T09:11:41.254Z,8.90
2023-04-02T09:14:19.645Z,9.00
2023-04-02T09:16:53.011Z,9.10
2023-04-02T09:19:26.670Z,9.10
2023-04-02T09:22:22.322Z,9.00
2023-04-02T09:25:14.276Z,9.00
2023-04-02T09:27:41.316Z,9.10
2023-04-02T09:30:32.717Z,9.00
2023-04-02T09:33:02.961Z,9.00
2023-04-02T09:35:32.562Z,8.90
2023-04-02T09:38:22.104Z,8.80
2023-04-02T09:41:05.816Z,8.80
2023-04-02T09:43:37.794Z,8.70
2023-04-02T09:46:13.918Z,8.70
2023-04-02T09:48:45.656Z,8.70
2023-04-02T09:51:24.796Z,8.70
2023-04-02T09:54:16.099Z,8.70
2023-04-02T09:57:04.397Z,8.80
2023-04-02T09:59:31.425Z,9.00
2023-04-02T10:02:01.913Z,9.10
2023-04-02T10:04:46.099Z,9.10
2023-04-02T10:07:43.965Z,9.10
2023-04-02T10:10:31.739Z,9.10
2023-04-02T10:13:03.822Z,9.20
2023-04-02T10:16:12.283Z,9.40
2023-04-02T10:18:54.624Z,9.50
2023-04-02T10:21:32.414Z,9.60
2023-04-02T10:23:59.702Z,9.80
2023-04-02T10:26:35.464Z,9.80
2023-04-02T10:29:23.168Z,10.00
2023-04-02T10:32:02.463Z,10.20
2023-04-02T10:34:49.328Z,10.40
2023-04-02T10:37:48.468Z,10.60
2023-04-02T10:40:46.123Z,11.00
2023-04-02T10:43:30.918Z,11.40
2023-04-02T10:46:33.084Z,11.80
2023-04-02T10:49:15.316Z,12.30
2023-04-02T10:51:49.079Z,12.70
2023-04-02T10:54:40.405Z,13.20
2023-04-02T10:57:16.552Z,13.50
2023-04-02T10:59:49.510Z,13.80
2023-04-02T11:02:32.642Z,14.10
2023-04-02T11:05:06.518Z,14.40
2023-04-02T11:07:43.861Z,14.50
2023-04-02T11:10:17.349Z,14.50
2023-04-02T11:12:52.648Z,14.50
2023-04-02T11:15:20.530Z,14.50
2023-04-02T11:17:47.923Z,14.50
2023-04-02T11:20:56.400Z,14.60
2023-04-02T11:23:27.914Z,15.00
2023-04-02T11:26:33.894Z,15.20
2023-04-02T11:29:23.185Z,15.50
2023-04-02T11:32:11.447Z,16.00
2023-04-02T11:34:41.396Z,16.50
2023-04-02T11:37:28.927Z,16.70
2023-04-02T11:39:59.101Z,17.00
2023-04-02T11:42:36.750Z,17.30
2023-04-02T11:45:22.041Z,17.50
2023-04-02T11:48:01.629Z,17.50
2023-04-02T11:50:34.764Z,17.50
2023-04-02T11:53:10.969Z,17.40
2023-04-02T11:55:42.625Z,17.40
2023-04-02T11:58:43.151Z,17.40
2023-04-02T12:01:33.252Z,17.30
2023-04-02T12:04:12.121Z,16.90
2023-04-02T12:06:57.152Z,16.60
2023-04-02T12:09:29.551Z,16.60
2023-04-02T12:12:00.034Z,16.70
2023-04-02T12:14:38.503Z,16.60
2023-04-02T12:17:33.480Z,16.40
2023-04-02T12:20:09.463Z,16.50
2023-04-02T12:22:40.312Z,16.70
2023-04-02T12:25:32.727Z,16.90
2023-04-02T12:28:06.377Z,17.20
2023-04-02T12:30:33.773Z,17.20
2023-04-02T12:33:37.581Z,17.00
2023-04-02T12:36:18.019Z,16.10
2023-04-02T12:38:44.824Z,15.40
2023-04-02T12:41:31.046Z,15.10
2023-04-02T12:43:59.816Z,14.70
2023-04-02T12:46:27.806Z,14.40
2023-04-02T12:49:04.491Z,14.20
2023-04-02T12:51:31.738Z,14.00
2023-04-02T12:53:58.711Z,13.70
2023-04-02T12:56:25.871Z,13.60
2023-04-02T12:58:57.617Z,13.70
2023-04-02T13:01:29.909Z,13.50
2023-04-02T13:04:08.465Z,13.30
2023-04-02T13:06:36.411Z,13.30
2023-04-02T13:09:06.667Z,13.30
2023-04-02T13:11:39.304Z,13.30
2023-04-02T13:14:14.251Z,13.30
2023-04-02T13:16:41.393Z,13.40
2023-04-02T13:19:17.290Z,13.30
2023-04-02T13:21:45.338Z,13.20
2023-04-02T13:24:20.521Z,13.10
2023-04-02T13:26:49.649Z,13.10
2023-04-02T13:29:16.971Z,13.00
2023-04-02T13:31:44.112Z,13.00
2023-04-02T13:34:11.208Z,12.90
2023-04-02T13:36:38.278Z,12.90
2023-04-02T13:39:05.616Z,12.90
2023-04-02T13:41:38.012Z,13.00
2023-04-02T13:44:05.042Z,13.00
2023-04-02T13:46:34.041Z,12.90
2023-04-02T13:49:01.176Z,12.90
2023-04-02T13:51:41.405Z,12.90
2023-04-02T13:54:20.525Z,12.80
2023-04-02T13:56:47.817Z,12.80
2023-04-02T13:59:14.972Z,12.90
2023-04-02T14:01:45.187Z,12.90
2023-04-02T14:04:17.730Z,13.00
2023-04-02T14:07:04.621Z,13.00
2023-04-02T14:09:43.925Z,13.10
2023-04-02T14:12:26.246Z,13.20
2023-04-02T14:14:55.822Z,13.20
2023-04-02T14:17:52.503Z,13.10
2023-04-02T14:20:56.730Z,13.10
2023-04-02T14:23:59.711Z,13.10
2023-04-02T14:26:44.954Z,13.30
2023-04-02T14:29:14.661Z,13.20
2023-04-02T14:31:53.691Z,13.20
2023-04-02T14:34:32.324Z,13.20
2023-04-02T14:37:30.377Z,13.20
2023-04-02T14:40:14.480Z,13.20
2023-04-02T14:42:53.751Z,13.10
2023-04-02T14:45:58.761Z,13.10
2023-04-02T14:48:30.857Z,13.20
2023-04-02T14:51:07.606Z,13.30
2023-04-02T14:53:58.235Z,13.30
2023-04-02T14:56:26.006Z,13.30
2023-04-02T14:59:18.553Z,13.30
2023-04-02T15:01:49.524Z,13.40
2023-04-02T15:04:30.156Z,13.30
2023-04-02T15:07:03.476Z,13.40
2023-04-02T15:09:47.508Z,13.30
2023-04-02T15:12:36.473Z,13.40
2023-04-02T15:15:39.059Z,13.30
2023-04-02T15:18:12.776Z,13.20
2023-04-02T15:21:02.016Z,13.20
2023-04-02T15:23:34.854Z,13.30
2023-04-02T15:26:24.261Z,13.20
2023-04-02T15:28:59.336Z,13.20
2023-04-02T15:31:28.134Z,13.20
2023-04-02T15:34:24.661Z,13.10
2023-04-02T15:37:29.120Z,13.20
2023-04-02T15:40:02.227Z,13.30
2023-04-02T15:42:33.133Z,13.30
2023-04-02T15:45:12.327Z,13.30
2023-04-02T15:47:54.164Z,13.30
2023-04-02T15:50:42.896Z,13.30
2023-04-02T15:53:22.262Z,13.30
2023-04-02T15:55:54.526Z,13.30
2023-04-02T15:58:47.555Z,13.30
2023-04-02T16:01:38.478Z,13.30
2023-04-02T16:04:42.757Z,13.30
2023-04-02T16:07:31.656Z,13.40
2023-04-02T16:10:34.228Z,13.40
2023-04-02T16:13:34.052Z,13.40
2023-04-02T16:16:22.032Z,13.40
2023-04-02T16:19:16.076Z,13.40
2023-04-02T16:21:56.085Z,13.40
2023-04-02T16:24:23.531Z,13.40
2023-04-02T16:27:14.794Z,13.40
2023-04-02T16:29:55.011Z,13.50
2023-04-02T16:32:26.557Z,13.50
2023-04-02T16:35:38.127Z,13.50
2023-04-02T16:38:18.397Z,13.50
2023-04-02T16:41:09.066Z,13.50
2023-04-02T16:44:17.336Z,13.50
2023-04-02T16:47:12.208Z,13.40
2023-04-02T16:49:50.632Z,13.30
2023-04-02T16:52:34.915Z,13.30
2023-04-02T16:55:24.122Z,13.20
2023-04-02T16:58:17.423Z,13.10
2023-04-02T17:01:06.323Z,13.00
2023-04-02T17:03:42.590Z,13.00
2023-04-02T17:06:33.582Z,12.90
2023-04-02T17:09:07.680Z,12.90
2023-04-02T17:11:41.334Z,12.80
2023-04-02T17:14:23.486Z,12.80
2023-04-02T17:17:00.772Z,12.70
2023-04-02T17:19:29.814Z,12.70
2023-04-02T17:22:00.985Z,12.70
2023-04-02T17:24:38.990Z,12.60
2023-04-02T17:27:29.016Z,12.60
2023-04-02T17:30:03.777Z,12.60
2023-04-02T17:32:33.190Z,12.50
2023-04-02T17:35:32.270Z,12.50
2023-04-02T17:38:05.784Z,12.50
2023-04-02T17:40:40.937Z,12.50
2023-04-02T17:43:47.297Z,12.50
2023-04-02T17:46:36.286Z,12.40
2023-04-02T17:49:25.570Z,12.30
2023-04-02T17:52:00.784Z,12.20
2023-04-02T17:54:46.796Z,12.30
2023-04-02T17:57:30.502Z,12.30
2023-04-02T18:00:23.995Z,12.30
2023-04-02T18:04:01.717Z,12.30
2023-04-02T18:06:48.823Z,12.30
2023-04-02T18:09:24.699Z,12.20
2023-04-02T18:12:06.739Z,12.10
2023-04-02T18:15:24.700Z,12.20
2023-04-02T18:18:17.537Z,12.20
2023-04-02T18:21:11.524Z,12.20
2023-04-02T18:24:03.637Z,12.20
2023-04-02T18:26:39.414Z,12.30
2023-04-02T18:29:15.674Z,12.30
2023-04-02T18:31:51.739Z,12.30
2023-04-02T18:34:28.553Z,12.50
2023-04-02T18:37:16.908Z,12.50
2023-04-02T18:39:53.639Z,12.50
2023-04-02T18:42:41.572Z,12.50
2023-04-02T18:45:11.297Z,12.50
2023-04-02T18:48:01.141Z,12.50
2023-04-02T18:50:35.230Z,12.50
2023-04-02T18:53:12.768Z,12.40
2023-04-02T18:55:48.326Z,12.40
2023-04-02T18:58:22.797Z,12.40
2023-04-02T19:00:50.800Z,12.40
2023-04-02T19:03:26.967Z,12.40
2023-04-02T19:06:05.171Z,12.40
2023-04-02T19:08:54.908Z,12.40
2023-04-02T19:11:29.401Z,12.40
2023-04-02T19:14:01.365Z,12.30
2023-04-02T19:16:49.946Z,12.30
2023-04-02T19:19:22.810Z,12.30
2023-04-02T19:21:58.598Z,12.20
2023-04-02T19:25:04.706Z,12.20
2023-04-02T19:27:36.749Z,12.20
2023-04-02T19:30:26.633Z,12.10
2023-04-02T19:33:08.915Z,12.10
2023-04-02T19:35:43.077Z,12.10
2023-04-02T19:38:18.942Z,12.10
2023-04-02T19:41:08.291Z,12.10
2023-04-02T19:43:35.302Z,12.10
2023-04-02T19:46:02.709Z,12.10
2023-04-02T19:48:57.847Z,12.00
2023-04-02T19:51:24.641Z,11.90
2023-04-02T19:53:51.483Z,11.90
2023-04-02T19:56:18.514Z,11.90
2023-04-02T19:58:45.377Z,11.80
2023-04-02T20:01:12.309Z,11.80
2023-04-02T20:03:39.655Z,11.80
2023-04-02T20:06:06.522Z,11.70
2023-04-02T20:08:33.473Z,11.70
2023-04-02T20:11:00.654Z,11.70
2023-04-02T20:13:27.552Z,11.70
2023-04-02T20:15:54.720Z,11.70
2023-04-02T20:18:21.744Z,11.60
2023-04-02T20:20:48.835Z,11.60
2023-04-02T20:23:16.568Z,11.50
2023-04-02T20:25:48.514Z,11.50
2023-04-02T20:28:15.368Z,11.50
2023-04-02T20:30:42.350Z,11.50
2023-04-02T20:33:09.857Z,11.40
2023-04-02T20:35:37.782Z,11.30
2023-04-02T20:38:06.683Z,11.30
2023-04-02T20:40:34.173Z,11.20
2023-04-02T20:43:01.548Z,11.10
2023-04-02T20:45:29.302Z,11.00
2023-04-02T20:47:56.794Z,11.00
2023-04-02T20:50:23.829Z,11.00
2023-04-02T20:52:51.664Z,11.00
2023-04-02T20:55:18.684Z,11.00
2023-04-02T20:57:45.812Z,10.90
2023-04-02T21:00:13.727Z,10.90
2023-04-02T21:02:40.573Z,10.90
2023-04-02T21:05:07.863Z,10.80
2023-04-02T21:07:34.749Z,10.80
2023-04-02T21:10:01.829Z,10.80
2023-04-02T21:12:28.906Z,10.80
2023-04-02T21:15:00.260Z,10.80
2023-04-02T21:17:29.347Z,10.70
2023-04-02T21:19:56.212Z,10.70
2023-04-02T21:22:23.865Z,10.70
2023-04-02T21:24:51.301Z,10.70
2023-04-02T21:27:18.314Z,10.70
2023-04-02T21:29:45.115Z,10.60
2023-04-02T21:32:20.742Z,10.60
2023-04-02T21:34:48.610Z,10.60
2023-04-02T21:37:15.488Z,10.50
2023-04-02T21:39:42.445Z,10.50
2023-04-02T21:42:11.084Z,10.40
2023-04-02T21:44:37.855Z,10.40
2023-04-02T21:47:04.748Z,10.40
2023-04-02T21:49:31.822Z,10.30
2023-04-02T21:51:59.393Z,10.30
2023-04-02T21:54:26.282Z,10.20
2023-04-02T21:56:53.202Z,10.20
2023-04-02T21:59:20.080Z,10.20
2023-04-02T22:01:49.134Z,10.20
2023-04-02T22:04:24.924Z,10.20
2023-04-02T22:06:53.205Z,10.10
2023-04-02T22:09:23.042Z,10.10
2023-04-02T22:11:54.257Z,10.00
2023-04-02T22:14:21.774Z,10.00
2023-04-02T22:16:48.775Z,9.90
2023-04-02T22:19:16.735Z,9.90
2023-04-02T22:21:44.004Z,9.80
2023-04-02T22:24:14.907Z,9.80
2023-04-02T22:26:43.300Z,9.80
2023-04-02T22:29:10.746Z,9.80
2023-04-02T22:31:38.149Z,9.80
2023-04-02T22:34:06.138Z,9.70
2023-04-02T22:36:33.663Z,9.70
2023-04-02T22:39:00.727Z,9.70
2023-04-02T22:41:29.517Z,9.70
2023-04-02T22:43:57.050Z,9.70
2023-04-02T22:46:24.424Z,9.60
2023-04-02T22:48:51.600Z,9.60
2023-04-02T22:51:20.045Z,9.60
2023-04-02T22:53:47.993Z,9.50
2023-04-02T22:56:16.707Z,9.50
2023-04-02T22:58:43.786Z,9.50
2023-04-02T23:01:14.305Z,9.50
2023-04-02T23:03:41.652Z,9.50
2023-04-02T23:06:11.548Z,9.50
2023-04-02T23:08:39.604Z,9.50
2023-04-02T23:11:13.068Z,9.50
2023-04-02T23:13:41.849Z,9.40
2023-04-02T23:16:12.173Z,9.40
2023-04-02T23:18:40.574Z,9.30
2023-04-02T23:21:08.465Z,9.30
2023-04-02T23:23:35.915Z,9.30
2023-04-02T23:26:08.393Z,9.30
2023-04-02T23:28:36.546Z,9.30
2023-04-02T23:31:06.071Z,9.30
2023-04-02T23:33:33.322Z,9.20
2023-04-02T23:36:00.485Z,9.20
2023-04-02T23:38:27.716Z,9.20
2023-04-02T23:40:54.619Z,9.10
2023-04-02T23:43:21.439Z,9.10
2023-04-02T23:45:49.368Z,9.10
2023-04-02T23:48:17.226Z,9.00
2023-04-02T23:50:45.570Z,8.90
2023-04-02T23:53:13.534Z,8.80
2023-04-02T23:55:40.537Z,8.80
2023-04-02T23:58:07.421Z,8.80
